sensor_id;sensor_type;location;lat;lon;timestamp;P1;durP1;ratioP1;P2;durP2;ratioP2
16139;SDS011;8175;49.326;12.690;2023-06-14T00:01:43;2.63;;;2.43;;
16139;SDS011;8175;49.326;12.690;2023-06-14T00:04:10;3.67;;;2.93;;
16139;SDS011;8175;49.326;12.690;2023-06-14T00:06:41;2.50;;;2.30;;
16139;SDS011;8175;49.326;12.690;2023-06-14T00:09:10;3.70;;;2.47;;
16139;SDS011;8175;49.326;12.690;2023-06-14T00:11:38;3.17;;;2.60;;
16139;SDS011;8175;49.326;12.690;2023-06-14T00:14:05;3.30;;;2.30;;
16139;SDS011;8175;49.326;12.690;2023-06-14T00:16:31;2.73;;;2.53;;
16139;SDS011;8175;49.326;12.690;2023-06-14T00:18:58;2.73;;;2.50;;
16139;SDS011;8175;49.326;12.690;2023-06-14T00:21:24;3.27;;;2.90;;
16139;SDS011;8175;49.326;12.690;2023-06-14T00:23:50;4.53;;;2.60;;
16139;SDS011;8175;49.326;12.690;2023-06-14T00:26:15;3.63;;;3.20;;
16139;SDS011;8175;49.326;12.690;2023-06-14T00:28:41;3.20;;;2.90;;
16139;SDS011;8175;49.326;12.690;2023-06-14T00:31:07;2.70;;;2.50;;
16139;SDS011;8175;49.326;12.690;2023-06-14T00:33:32;2.83;;;2.57;;
16139;SDS011;8175;49.326;12.690;2023-06-14T00:35:58;3.00;;;2.80;;
16139;SDS011;8175;49.326;12.690;2023-06-14T00:38:24;3.27;;;2.57;;
16139;SDS011;8175;49.326;12.690;2023-06-14T00:40:49;2.90;;;2.30;;
16139;SDS011;8175;49.326;12.690;2023-06-14T00:43:15;3.97;;;2.70;;
16139;SDS011;8175;49.326;12.690;2023-06-14T00:45:41;3.37;;;2.70;;
16139;SDS011;8175;49.326;12.690;2023-06-14T00:48:07;3.80;;;3.03;;
16139;SDS011;8175;49.326;12.690;2023-06-14T00:50:34;2.73;;;2.53;;
16139;SDS011;8175;49.326;12.690;2023-06-14T00:53:01;2.93;;;2.63;;
16139;SDS011;8175;49.326;12.690;2023-06-14T00:55:28;2.83;;;2.57;;
16139;SDS011;8175;49.326;12.690;2023-06-14T00:57:54;3.40;;;2.73;;
16139;SDS011;8175;49.326;12.690;2023-06-14T01:00:20;2.53;;;2.33;;
16139;SDS011;8175;49.326;12.690;2023-06-14T01:02:47;3.20;;;2.90;;
16139;SDS011;8175;49.326;12.690;2023-06-14T01:05:14;2.77;;;2.57;;
16139;SDS011;8175;49.326;12.690;2023-06-14T01:13:21;3.67;;;3.20;;
16139;SDS011;8175;49.326;12.690;2023-06-14T01:16:00;2.90;;;2.60;;
16139;SDS011;8175;49.326;12.690;2023-06-14T01:18:27;3.23;;;2.93;;
16139;SDS011;8175;49.326;12.690;2023-06-14T01:20:55;4.67;;;3.40;;
16139;SDS011;8175;49.326;12.690;2023-06-14T01:23:21;3.20;;;2.70;;
16139;SDS011;8175;49.326;12.690;2023-06-14T01:25:48;2.90;;;2.60;;
16139;SDS011;8175;49.326;12.690;2023-06-14T01:28:17;3.10;;;2.90;;
16139;SDS011;8175;49.326;12.690;2023-06-14T01:30:46;3.83;;;3.20;;
16139;SDS011;8175;49.326;12.690;2023-06-14T01:33:20;3.57;;;3.27;;
16139;SDS011;8175;49.326;12.690;2023-06-14T01:35:48;3.20;;;2.90;;
16139;SDS011;8175;49.326;12.690;2023-06-14T01:38:17;3.93;;;3.53;;
16139;SDS011;8175;49.326;12.690;2023-06-14T01:40:46;3.57;;;3.27;;
16139;SDS011;8175;49.326;12.690;2023-06-14T01:43:13;4.80;;;3.00;;
16139;SDS011;8175;49.326;12.690;2023-06-14T01:45:44;3.20;;;2.90;;
16139;SDS011;8175;49.326;12.690;2023-06-14T01:48:12;3.10;;;2.73;;
16139;SDS011;8175;49.326;12.690;2023-06-14T01:50:38;3.47;;;2.87;;
16139;SDS011;8175;49.326;12.690;2023-06-14T01:53:06;2.97;;;2.67;;
16139;SDS011;8175;49.326;12.690;2023-06-14T01:55:32;2.97;;;2.67;;
16139;SDS011;8175;49.326;12.690;2023-06-14T01:58:02;3.10;;;2.80;;
16139;SDS011;8175;49.326;12.690;2023-06-14T02:00:29;3.43;;;3.13;;
16139;SDS011;8175;49.326;12.690;2023-06-14T02:02:54;3.83;;;3.10;;
16139;SDS011;8175;49.326;12.690;2023-06-14T02:05:20;4.27;;;3.20;;
16139;SDS011;8175;49.326;12.690;2023-06-14T02:07:46;3.23;;;2.90;;
16139;SDS011;8175;49.326;12.690;2023-06-14T02:10:12;4.80;;;2.80;;
16139;SDS011;8175;49.326;12.690;2023-06-14T02:12:39;3.67;;;3.33;;
16139;SDS011;8175;49.326;12.690;2023-06-14T02:15:05;3.37;;;2.70;;
16139;SDS011;8175;49.326;12.690;2023-06-14T02:17:32;2.63;;;2.43;;
16139;SDS011;8175;49.326;12.690;2023-06-14T02:19:57;4.50;;;3.13;;
16139;SDS011;8175;49.326;12.690;2023-06-14T02:22:23;3.20;;;2.90;;
16139;SDS011;8175;49.326;12.690;2023-06-14T02:24:49;3.70;;;2.83;;
16139;SDS011;8175;49.326;12.690;2023-06-14T02:27:15;3.37;;;3.07;;
16139;SDS011;8175;49.326;12.690;2023-06-14T02:29:41;3.80;;;2.93;;
16139;SDS011;8175;49.326;12.690;2023-06-14T02:32:07;4.20;;;2.93;;
16139;SDS011;8175;49.326;12.690;2023-06-14T02:34:33;3.20;;;2.90;;
16139;SDS011;8175;49.326;12.690;2023-06-14T02:36:59;3.77;;;2.70;;
16139;SDS011;8175;49.326;12.690;2023-06-14T02:39:27;3.13;;;2.83;;
16139;SDS011;8175;49.326;12.690;2023-06-14T02:41:53;3.63;;;3.20;;
16139;SDS011;8175;49.326;12.690;2023-06-14T02:44:19;4.67;;;2.93;;
16139;SDS011;8175;49.326;12.690;2023-06-14T02:46:48;3.77;;;3.47;;
16139;SDS011;8175;49.326;12.690;2023-06-14T02:49:14;4.00;;;2.80;;
16139;SDS011;8175;49.326;12.690;2023-06-14T02:51:40;3.90;;;3.20;;
16139;SDS011;8175;49.326;12.690;2023-06-14T02:54:05;3.03;;;2.80;;
16139;SDS011;8175;49.326;12.690;2023-06-14T02:56:31;4.17;;;2.97;;
16139;SDS011;8175;49.326;12.690;2023-06-14T02:58:57;3.73;;;3.00;;
16139;SDS011;8175;49.326;12.690;2023-06-14T03:01:25;3.43;;;2.90;;
16139;SDS011;8175;49.326;12.690;2023-06-14T03:03:59;3.53;;;3.20;;
16139;SDS011;8175;49.326;12.690;2023-06-14T03:06:28;3.90;;;3.50;;
16139;SDS011;8175;49.326;12.690;2023-06-14T03:08:58;3.67;;;3.37;;
16139;SDS011;8175;49.326;12.690;2023-06-14T03:11:25;4.50;;;3.27;;
16139;SDS011;8175;49.326;12.690;2023-06-14T03:13:51;3.90;;;3.53;;
16139;SDS011;8175;49.326;12.690;2023-06-14T03:16:17;4.93;;;3.63;;
16139;SDS011;8175;49.326;12.690;2023-06-14T03:18:46;4.57;;;3.60;;
16139;SDS011;8175;49.326;12.690;2023-06-14T03:21:18;4.93;;;4.43;;
16139;SDS011;8175;49.326;12.690;2023-06-14T03:23:46;3.87;;;3.57;;
16139;SDS011;8175;49.326;12.690;2023-06-14T03:26:13;4.00;;;3.60;;
16139;SDS011;8175;49.326;12.690;2023-06-14T03:28:42;5.17;;;4.17;;
16139;SDS011;8175;49.326;12.690;2023-06-14T03:31:11;5.13;;;4.17;;
16139;SDS011;8175;49.326;12.690;2023-06-14T03:33:38;4.60;;;3.60;;
16139;SDS011;8175;49.326;12.690;2023-06-14T03:36:04;4.73;;;4.27;;
16139;SDS011;8175;49.326;12.690;2023-06-14T03:38:31;4.30;;;3.77;;
16139;SDS011;8175;49.326;12.690;2023-06-14T03:40:57;4.87;;;4.43;;
16139;SDS011;8175;49.326;12.690;2023-06-14T03:43:23;4.33;;;3.17;;
16139;SDS011;8175;49.326;12.690;2023-06-14T03:45:48;4.90;;;4.40;;
16139;SDS011;8175;49.326;12.690;2023-06-14T03:48:14;4.20;;;3.73;;
16139;SDS011;8175;49.326;12.690;2023-06-14T03:50:40;5.17;;;3.80;;
16139;SDS011;8175;49.326;12.690;2023-06-14T03:53:08;4.50;;;4.10;;
16139;SDS011;8175;49.326;12.690;2023-06-14T03:55:34;4.07;;;3.73;;
16139;SDS011;8175;49.326;12.690;2023-06-14T03:57:59;4.53;;;4.13;;
16139;SDS011;8175;49.326;12.690;2023-06-14T04:00:25;3.90;;;3.60;;
16139;SDS011;8175;49.326;12.690;2023-06-14T04:02:51;4.27;;;3.80;;
16139;SDS011;8175;49.326;12.690;2023-06-14T04:05:18;5.13;;;4.63;;
16139;SDS011;8175;49.326;12.690;2023-06-14T04:07:44;3.70;;;3.40;;
16139;SDS011;8175;49.326;12.690;2023-06-14T04:10:11;4.53;;;4.07;;
16139;SDS011;8175;49.326;12.690;2023-06-14T04:12:38;4.17;;;3.87;;
16139;SDS011;8175;49.326;12.690;2023-06-14T04:15:03;4.00;;;3.60;;
16139;SDS011;8175;49.326;12.690;2023-06-14T04:17:32;4.37;;;3.97;;
16139;SDS011;8175;49.326;12.690;2023-06-14T04:20:01;4.67;;;4.27;;
16139;SDS011;8175;49.326;12.690;2023-06-14T04:22:29;3.70;;;3.40;;
16139;SDS011;8175;49.326;12.690;2023-06-14T04:24:56;4.37;;;3.83;;
16139;SDS011;8175;49.326;12.690;2023-06-14T04:27:23;4.47;;;4.07;;
16139;SDS011;8175;49.326;12.690;2023-06-14T04:29:54;4.50;;;3.97;;
16139;SDS011;8175;49.326;12.690;2023-06-14T04:32:24;4.13;;;3.73;;
16139;SDS011;8175;49.326;12.690;2023-06-14T04:34:57;4.37;;;4.07;;
16139;SDS011;8175;49.326;12.690;2023-06-14T04:37:24;4.87;;;4.40;;
16139;SDS011;8175;49.326;12.690;2023-06-14T04:39:53;5.60;;;4.53;;
16139;SDS011;8175;49.326;12.690;2023-06-14T04:42:20;6.00;;;4.10;;
16139;SDS011;8175;49.326;12.690;2023-06-14T04:44:55;3.70;;;3.40;;
16139;SDS011;8175;49.326;12.690;2023-06-14T04:47:22;4.33;;;3.80;;
16139;SDS011;8175;49.326;12.690;2023-06-14T04:49:49;4.37;;;3.67;;
16139;SDS011;8175;49.326;12.690;2023-06-14T04:52:17;3.77;;;3.40;;
16139;SDS011;8175;49.326;12.690;2023-06-14T04:54:45;4.60;;;4.20;;
16139;SDS011;8175;49.326;12.690;2023-06-14T04:57:12;5.67;;;4.27;;
16139;SDS011;8175;49.326;12.690;2023-06-14T04:59:43;5.53;;;4.70;;
16139;SDS011;8175;49.326;12.690;2023-06-14T05:02:09;3.77;;;3.47;;
16139;SDS011;8175;49.326;12.690;2023-06-14T05:04:36;5.17;;;4.07;;
16139;SDS011;8175;49.326;12.690;2023-06-14T05:07:06;4.30;;;3.93;;
16139;SDS011;8175;49.326;12.690;2023-06-14T05:09:32;4.83;;;4.20;;
16139;SDS011;8175;49.326;12.690;2023-06-14T05:11:58;5.97;;;4.60;;
16139;SDS011;8175;49.326;12.690;2023-06-14T05:14:25;6.07;;;4.90;;
16139;SDS011;8175;49.326;12.690;2023-06-14T05:16:51;5.03;;;3.77;;
16139;SDS011;8175;49.326;12.690;2023-06-14T05:19:17;5.60;;;5.10;;
16139;SDS011;8175;49.326;12.690;2023-06-14T05:21:43;5.77;;;4.77;;
16139;SDS011;8175;49.326;12.690;2023-06-14T05:24:09;5.37;;;4.50;;
16139;SDS011;8175;49.326;12.690;2023-06-14T05:26:36;5.67;;;5.17;;
16139;SDS011;8175;49.326;12.690;2023-06-14T05:29:01;5.40;;;4.97;;
16139;SDS011;8175;49.326;12.690;2023-06-14T05:31:27;5.03;;;4.60;;
16139;SDS011;8175;49.326;12.690;2023-06-14T05:33:53;5.37;;;4.93;;
16139;SDS011;8175;49.326;12.690;2023-06-14T05:36:20;5.27;;;4.83;;
16139;SDS011;8175;49.326;12.690;2023-06-14T05:38:48;5.20;;;4.57;;
16139;SDS011;8175;49.326;12.690;2023-06-14T05:41:15;4.67;;;4.27;;
16139;SDS011;8175;49.326;12.690;2023-06-14T05:43:41;7.20;;;3.77;;
16139;SDS011;8175;49.326;12.690;2023-06-14T05:46:07;4.77;;;4.03;;
16139;SDS011;8175;49.326;12.690;2023-06-14T05:48:33;4.10;;;3.70;;
16139;SDS011;8175;49.326;12.690;2023-06-14T05:50:58;4.77;;;3.80;;
16139;SDS011;8175;49.326;12.690;2023-06-14T05:53:24;4.17;;;3.70;;
16139;SDS011;8175;49.326;12.690;2023-06-14T05:55:50;3.83;;;3.53;;
16139;SDS011;8175;49.326;12.690;2023-06-14T05:58:18;5.13;;;4.10;;
16139;SDS011;8175;49.326;12.690;2023-06-14T06:00:45;3.07;;;2.87;;
16139;SDS011;8175;49.326;12.690;2023-06-14T06:03:11;4.07;;;3.70;;
16139;SDS011;8175;49.326;12.690;2023-06-14T06:05:38;3.70;;;3.40;;
16139;SDS011;8175;49.326;12.690;2023-06-14T06:08:04;4.10;;;3.20;;
16139;SDS011;8175;49.326;12.690;2023-06-14T06:10:29;5.60;;;3.90;;
16139;SDS011;8175;49.326;12.690;2023-06-14T06:12:55;3.47;;;3.17;;
16139;SDS011;8175;49.326;12.690;2023-06-14T06:15:20;4.90;;;3.27;;
16139;SDS011;8175;49.326;12.690;2023-06-14T06:17:46;3.63;;;3.33;;
16139;SDS011;8175;49.326;12.690;2023-06-14T06:20:12;4.33;;;3.30;;
16139;SDS011;8175;49.326;12.690;2023-06-14T06:22:37;5.20;;;3.43;;
16139;SDS011;8175;49.326;12.690;2023-06-14T06:25:04;3.63;;;3.30;;
16139;SDS011;8175;49.326;12.690;2023-06-14T06:27:31;3.80;;;3.50;;
16139;SDS011;8175;49.326;12.690;2023-06-14T06:29:57;3.73;;;3.33;;
16139;SDS011;8175;49.326;12.690;2023-06-14T06:32:22;4.07;;;3.67;;
16139;SDS011;8175;49.326;12.690;2023-06-14T06:34:48;3.97;;;3.53;;
16139;SDS011;8175;49.326;12.690;2023-06-14T06:37:13;4.63;;;3.50;;
16139;SDS011;8175;49.326;12.690;2023-06-14T06:39:39;4.03;;;3.63;;
16139;SDS011;8175;49.326;12.690;2023-06-14T06:42:05;7.30;;;4.07;;
16139;SDS011;8175;49.326;12.690;2023-06-14T06:44:31;3.60;;;3.30;;
16139;SDS011;8175;49.326;12.690;2023-06-14T06:46:57;3.40;;;3.10;;
16139;SDS011;8175;49.326;12.690;2023-06-14T06:49:23;3.57;;;3.20;;
16139;SDS011;8175;49.326;12.690;2023-06-14T06:54:44;3.50;;;3.07;;
16139;SDS011;8175;49.326;12.690;2023-06-14T06:57:10;3.73;;;2.90;;
16139;SDS011;8175;49.326;12.690;2023-06-14T06:59:36;3.77;;;3.47;;
16139;SDS011;8175;49.326;12.690;2023-06-14T07:02:02;4.47;;;3.30;;
16139;SDS011;8175;49.326;12.690;2023-06-14T07:04:28;4.13;;;3.73;;
16139;SDS011;8175;49.326;12.690;2023-06-14T07:06:53;4.37;;;3.50;;
16139;SDS011;8175;49.326;12.690;2023-06-14T07:09:19;3.57;;;3.23;;
16139;SDS011;8175;49.326;12.690;2023-06-14T07:11:46;5.67;;;3.10;;
16139;SDS011;8175;49.326;12.690;2023-06-14T07:14:12;3.33;;;3.03;;
16139;SDS011;8175;49.326;12.690;2023-06-14T07:16:38;3.90;;;3.60;;
16139;SDS011;8175;49.326;12.690;2023-06-14T07:19:04;3.50;;;3.20;;
16139;SDS011;8175;49.326;12.690;2023-06-14T07:21:30;3.53;;;3.23;;
16139;SDS011;8175;49.326;12.690;2023-06-14T07:23:56;3.00;;;2.70;;
16139;SDS011;8175;49.326;12.690;2023-06-14T07:26:22;3.80;;;3.00;;
16139;SDS011;8175;49.326;12.690;2023-06-14T07:28:48;3.67;;;3.27;;
16139;SDS011;8175;49.326;12.690;2023-06-14T07:31:17;3.57;;;3.27;;
16139;SDS011;8175;49.326;12.690;2023-06-14T07:33:44;5.33;;;2.87;;
16139;SDS011;8175;49.326;12.690;2023-06-14T07:36:10;3.10;;;2.87;;
16139;SDS011;8175;49.326;12.690;2023-06-14T07:38:36;3.25;;;3.03;;
16139;SDS011;8175;49.326;12.690;2023-06-14T07:41:01;4.22;;;3.20;;
16139;SDS011;8175;49.326;12.690;2023-06-14T07:43:27;4.78;;;3.30;;
16139;SDS011;8175;49.326;12.690;2023-06-14T07:45:53;3.70;;;3.40;;
16139;SDS011;8175;49.326;12.690;2023-06-14T07:48:18;3.70;;;3.40;;
16139;SDS011;8175;49.326;12.690;2023-06-14T07:50:44;3.58;;;2.92;;
16139;SDS011;8175;49.326;12.690;2023-06-14T07:53:10;3.88;;;3.58;;
16139;SDS011;8175;49.326;12.690;2023-06-14T07:55:36;3.50;;;3.20;;
16139;SDS011;8175;49.326;12.690;2023-06-14T07:58:05;3.63;;;3.33;;
16139;SDS011;8175;49.326;12.690;2023-06-14T08:00:31;3.63;;;3.15;;
16139;SDS011;8175;49.326;12.690;2023-06-14T08:02:57;4.03;;;3.10;;
16139;SDS011;8175;49.326;12.690;2023-06-14T08:05:24;5.47;;;3.42;;
16139;SDS011;8175;49.326;12.690;2023-06-14T08:07:54;5.47;;;3.70;;
16139;SDS011;8175;49.326;12.690;2023-06-14T08:10:20;2.97;;;2.67;;
16139;SDS011;8175;49.326;12.690;2023-06-14T08:12:46;4.13;;;3.72;;
16139;SDS011;8175;49.326;12.690;2023-06-14T08:15:13;3.72;;;3.42;;
16139;SDS011;8175;49.326;12.690;2023-06-14T08:17:39;3.65;;;3.35;;
16139;SDS011;8175;49.326;12.690;2023-06-14T08:20:05;3.75;;;3.47;;
16139;SDS011;8175;49.326;12.690;2023-06-14T08:22:31;3.60;;;3.30;;
16139;SDS011;8175;49.326;12.690;2023-06-14T08:25:01;3.60;;;3.30;;
16139;SDS011;8175;49.326;12.690;2023-06-14T08:27:27;3.05;;;2.85;;
16139;SDS011;8175;49.326;12.690;2023-06-14T08:29:52;3.47;;;3.17;;
16139;SDS011;8175;49.326;12.690;2023-06-14T08:32:18;5.03;;;3.60;;
16139;SDS011;8175;49.326;12.690;2023-06-14T08:34:44;3.55;;;3.25;;
16139;SDS011;8175;49.326;12.690;2023-06-14T08:37:10;3.35;;;3.13;;
16139;SDS011;8175;49.326;12.690;2023-06-14T08:39:35;3.20;;;2.90;;
16139;SDS011;8175;49.326;12.690;2023-06-14T08:42:02;4.25;;;3.28;;
16139;SDS011;8175;49.326;12.690;2023-06-14T08:44:28;3.25;;;2.95;;
16139;SDS011;8175;49.326;12.690;2023-06-14T08:46:57;4.18;;;3.60;;
16139;SDS011;8175;49.326;12.690;2023-06-14T08:49:25;4.40;;;3.22;;
16139;SDS011;8175;49.326;12.690;2023-06-14T08:51:56;3.40;;;3.10;;
16139;SDS011;8175;49.326;12.690;2023-06-14T08:54:23;5.10;;;3.05;;
16139;SDS011;8175;49.326;12.690;2023-06-14T08:56:52;3.10;;;2.85;;
16139;SDS011;8175;49.326;12.690;2023-06-14T08:59:22;4.07;;;3.03;;
16139;SDS011;8175;49.326;12.690;2023-06-14T09:01:51;3.10;;;2.80;;
16139;SDS011;8175;49.326;12.690;2023-06-14T09:04:17;3.75;;;3.40;;
16139;SDS011;8175;49.326;12.690;2023-06-14T09:06:44;3.10;;;2.80;;
16139;SDS011;8175;49.326;12.690;2023-06-14T09:09:10;3.28;;;2.90;;
16139;SDS011;8175;49.326;12.690;2023-06-14T09:11:37;3.20;;;3.00;;
16139;SDS011;8175;49.326;12.690;2023-06-14T09:14:03;3.88;;;3.58;;
16139;SDS011;8175;49.326;12.690;2023-06-14T09:16:31;3.38;;;3.05;;
16139;SDS011;8175;49.326;12.690;2023-06-14T09:18:58;3.80;;;3.50;;
16139;SDS011;8175;49.326;12.690;2023-06-14T09:21:24;5.47;;;3.35;;
16139;SDS011;8175;49.326;12.690;2023-06-14T09:23:49;3.60;;;3.00;;
16139;SDS011;8175;49.326;12.690;2023-06-14T09:26:18;4.38;;;3.25;;
16139;SDS011;8175;49.326;12.690;2023-06-14T09:28:45;3.30;;;3.05;;
16139;SDS011;8175;49.326;12.690;2023-06-14T09:31:15;3.20;;;2.88;;
16139;SDS011;8175;49.326;12.690;2023-06-14T09:33:43;3.55;;;3.13;;
16139;SDS011;8175;49.326;12.690;2023-06-14T09:36:16;2.67;;;2.47;;
16139;SDS011;8175;49.326;12.690;2023-06-14T09:38:53;3.28;;;2.90;;
16139;SDS011;8175;49.326;12.690;2023-06-14T09:41:21;3.33;;;2.88;;
16139;SDS011;8175;49.326;12.690;2023-06-14T09:44:03;4.38;;;3.05;;
16139;SDS011;8175;49.326;12.690;2023-06-14T09:46:30;4.38;;;2.70;;
16139;SDS011;8175;49.326;12.690;2023-06-14T09:48:57;4.45;;;3.63;;
16139;SDS011;8175;49.326;12.690;2023-06-14T09:51:23;3.03;;;2.83;;
16139;SDS011;8175;49.326;12.690;2023-06-14T09:53:50;3.00;;;2.80;;
16139;SDS011;8175;49.326;12.690;2023-06-14T09:56:17;4.47;;;2.90;;
16139;SDS011;8175;49.326;12.690;2023-06-14T09:58:56;3.50;;;3.20;;
16139;SDS011;8175;49.326;12.690;2023-06-14T10:01:23;4.13;;;2.90;;
16139;SDS011;8175;49.326;12.690;2023-06-14T10:03:53;4.50;;;3.05;;
16139;SDS011;8175;49.326;12.690;2023-06-14T10:06:22;3.53;;;3.00;;
16139;SDS011;8175;49.326;12.690;2023-06-14T10:08:51;3.17;;;2.83;;
16139;SDS011;8175;49.326;12.690;2023-06-14T10:11:19;2.75;;;2.53;;
16139;SDS011;8175;49.326;12.690;2023-06-14T10:13:45;3.40;;;3.03;;
16139;SDS011;8175;49.326;12.690;2023-06-14T10:19:07;3.47;;;3.17;;
16139;SDS011;8175;49.326;12.690;2023-06-14T10:24:20;2.85;;;2.65;;
16139;SDS011;8175;49.326;12.690;2023-06-14T10:27:00;3.08;;;2.78;;
16139;SDS011;8175;49.326;12.690;2023-06-14T10:29:29;4.65;;;3.47;;
16139;SDS011;8175;49.326;12.690;2023-06-14T10:31:59;3.10;;;2.80;;
16139;SDS011;8175;49.326;12.690;2023-06-14T10:34:28;4.28;;;3.20;;
16139;SDS011;8175;49.326;12.690;2023-06-14T10:39:28;3.28;;;2.65;;
16139;SDS011;8175;49.326;12.690;2023-06-14T10:41:54;5.95;;;3.15;;
16139;SDS011;8175;49.326;12.690;2023-06-14T10:46:46;3.47;;;2.95;;
16139;SDS011;8175;49.326;12.690;2023-06-14T10:49:16;3.35;;;3.10;;
16139;SDS011;8175;49.326;12.690;2023-06-14T10:51:45;3.22;;;3.00;;
16139;SDS011;8175;49.326;12.690;2023-06-14T10:54:18;4.90;;;3.13;;
16139;SDS011;8175;49.326;12.690;2023-06-14T10:56:52;2.90;;;2.70;;
16139;SDS011;8175;49.326;12.690;2023-06-14T10:59:19;2.80;;;2.60;;
16139;SDS011;8175;49.326;12.690;2023-06-14T11:04:20;3.13;;;2.78;;
16139;SDS011;8175;49.326;12.690;2023-06-14T11:12:15;3.72;;;3.05;;
16139;SDS011;8175;49.326;12.690;2023-06-14T11:14:45;4.22;;;2.72;;
16139;SDS011;8175;49.326;12.690;2023-06-14T11:17:12;3.03;;;2.80;;
16139;SDS011;8175;49.326;12.690;2023-06-14T11:19:37;3.20;;;2.90;;
16139;SDS011;8175;49.326;12.690;2023-06-14T11:22:03;3.20;;;2.90;;
16139;SDS011;8175;49.326;12.690;2023-06-14T11:24:29;3.13;;;2.83;;
16139;SDS011;8175;49.326;12.690;2023-06-14T11:26:57;4.47;;;2.50;;
16139;SDS011;8175;49.326;12.690;2023-06-14T11:29:23;2.83;;;2.63;;
16139;SDS011;8175;49.326;12.690;2023-06-14T11:31:48;3.55;;;3.25;;
16139;SDS011;8175;49.326;12.690;2023-06-14T11:34:14;3.72;;;3.00;;
16139;SDS011;8175;49.326;12.690;2023-06-14T11:36:40;2.80;;;2.60;;
16139;SDS011;8175;49.326;12.690;2023-06-14T11:39:07;3.35;;;2.60;;
16139;SDS011;8175;49.326;12.690;2023-06-14T11:41:37;3.33;;;3.03;;
16139;SDS011;8175;49.326;12.690;2023-06-14T11:44:06;3.20;;;3.00;;
16139;SDS011;8175;49.326;12.690;2023-06-14T11:46:32;4.03;;;2.90;;
16139;SDS011;8175;49.326;12.690;2023-06-14T11:48:58;2.90;;;2.70;;
16139;SDS011;8175;49.326;12.690;2023-06-14T11:51:27;3.17;;;2.80;;
16139;SDS011;8175;49.326;12.690;2023-06-14T11:53:54;3.15;;;2.88;;
16139;SDS011;8175;49.326;12.690;2023-06-14T11:56:20;2.95;;;2.72;;
16139;SDS011;8175;49.326;12.690;2023-06-14T11:58:46;3.50;;;2.80;;
16139;SDS011;8175;49.326;12.690;2023-06-14T12:01:18;2.60;;;2.40;;
16139;SDS011;8175;49.326;12.690;2023-06-14T12:03:47;3.40;;;3.10;;
16139;SDS011;8175;49.326;12.690;2023-06-14T12:06:14;3.50;;;3.22;;
16139;SDS011;8175;49.326;12.690;2023-06-14T12:08:39;3.00;;;2.80;;
16139;SDS011;8175;49.326;12.690;2023-06-14T12:11:14;4.40;;;3.63;;
16139;SDS011;8175;49.326;12.690;2023-06-14T12:13:41;3.40;;;3.10;;
16139;SDS011;8175;49.326;12.690;2023-06-14T12:16:08;3.80;;;2.57;;
16139;SDS011;8175;49.326;12.690;2023-06-14T12:18:35;2.65;;;2.45;;
16139;SDS011;8175;49.326;12.690;2023-06-14T12:21:03;5.77;;;2.90;;
16139;SDS011;8175;49.326;12.690;2023-06-14T12:23:47;2.73;;;2.53;;
16139;SDS011;8175;49.326;12.690;2023-06-14T12:28:41;3.23;;;2.93;;
16139;SDS011;8175;49.326;12.690;2023-06-14T12:31:14;3.20;;;2.90;;
16139;SDS011;8175;49.326;12.690;2023-06-14T12:33:41;3.50;;;2.70;;
16139;SDS011;8175;49.326;12.690;2023-06-14T12:36:07;2.90;;;2.70;;
16139;SDS011;8175;49.326;12.690;2023-06-14T12:38:35;3.20;;;2.90;;
16139;SDS011;8175;49.326;12.690;2023-06-14T12:41:01;2.90;;;2.70;;
16139;SDS011;8175;49.326;12.690;2023-06-14T12:43:27;3.22;;;2.70;;
16139;SDS011;8175;49.326;12.690;2023-06-14T12:45:53;3.38;;;2.97;;
16139;SDS011;8175;49.326;12.690;2023-06-14T12:48:19;3.90;;;2.67;;
16139;SDS011;8175;49.326;12.690;2023-06-14T12:50:45;3.53;;;2.70;;
16139;SDS011;8175;49.326;12.690;2023-06-14T12:53:11;3.20;;;2.58;;
16139;SDS011;8175;49.326;12.690;2023-06-14T12:55:37;3.20;;;2.90;;
16139;SDS011;8175;49.326;12.690;2023-06-14T12:58:02;3.42;;;3.00;;
16139;SDS011;8175;49.326;12.690;2023-06-14T13:00:28;2.95;;;2.75;;
16139;SDS011;8175;49.326;12.690;2023-06-14T13:02:57;2.75;;;2.55;;
16139;SDS011;8175;49.326;12.690;2023-06-14T13:05:23;2.53;;;2.33;;
16139;SDS011;8175;49.326;12.690;2023-06-14T13:07:49;3.17;;;2.88;;
16139;SDS011;8175;49.326;12.690;2023-06-14T13:10:15;2.80;;;2.60;;
16139;SDS011;8175;49.326;12.690;2023-06-14T13:12:41;2.80;;;2.60;;
16139;SDS011;8175;49.326;12.690;2023-06-14T13:15:07;2.65;;;2.45;;
16139;SDS011;8175;49.326;12.690;2023-06-14T13:17:33;3.00;;;2.13;;
16139;SDS011;8175;49.326;12.690;2023-06-14T13:20:04;3.08;;;2.78;;
16139;SDS011;8175;49.326;12.690;2023-06-14T13:22:33;2.80;;;2.60;;
16139;SDS011;8175;49.326;12.690;2023-06-14T13:24:59;2.97;;;2.65;;
16139;SDS011;8175;49.326;12.690;2023-06-14T13:27:26;5.28;;;2.78;;
16139;SDS011;8175;49.326;12.690;2023-06-14T13:29:52;3.30;;;3.00;;
16139;SDS011;8175;49.326;12.690;2023-06-14T13:32:18;3.03;;;2.50;;
16139;SDS011;8175;49.326;12.690;2023-06-14T13:34:45;3.35;;;3.05;;
16139;SDS011;8175;49.326;12.690;2023-06-14T13:37:11;2.80;;;2.60;;
16139;SDS011;8175;49.326;12.690;2023-06-14T13:39:36;3.28;;;2.83;;
16139;SDS011;8175;49.326;12.690;2023-06-14T13:42:02;2.88;;;2.60;;
16139;SDS011;8175;49.326;12.690;2023-06-14T13:44:28;2.65;;;2.45;;
16139;SDS011;8175;49.326;12.690;2023-06-14T13:46:54;5.30;;;2.72;;
16139;SDS011;8175;49.326;12.690;2023-06-14T13:49:19;2.95;;;2.65;;
16139;SDS011;8175;49.326;12.690;2023-06-14T13:51:45;2.92;;;2.72;;
16139;SDS011;8175;49.326;12.690;2023-06-14T13:54:14;4.10;;;2.92;;
16139;SDS011;8175;49.326;12.690;2023-06-14T13:56:45;2.75;;;2.50;;
16139;SDS011;8175;49.326;12.690;2023-06-14T13:59:11;3.08;;;2.78;;
16139;SDS011;8175;49.326;12.690;2023-06-14T14:01:37;2.70;;;2.50;;
16139;SDS011;8175;49.326;12.690;2023-06-14T14:04:03;3.60;;;3.03;;
16139;SDS011;8175;49.326;12.690;2023-06-14T14:06:29;3.45;;;2.63;;
16139;SDS011;8175;49.326;12.690;2023-06-14T14:08:56;4.22;;;2.90;;
16139;SDS011;8175;49.326;12.690;2023-06-14T14:11:22;2.95;;;2.75;;
16139;SDS011;8175;49.326;12.690;2023-06-14T14:13:47;2.78;;;2.38;;
16139;SDS011;8175;49.326;12.690;2023-06-14T14:16:13;5.07;;;3.08;;
16139;SDS011;8175;49.326;12.690;2023-06-14T14:18:39;3.83;;;2.95;;
16139;SDS011;8175;49.326;12.690;2023-06-14T14:21:05;2.85;;;2.65;;
16139;SDS011;8175;49.326;12.690;2023-06-14T14:23:31;3.20;;;2.92;;
16139;SDS011;8175;49.326;12.690;2023-06-14T14:25:56;3.83;;;2.75;;
16139;SDS011;8175;49.326;12.690;2023-06-14T14:28:22;3.97;;;2.78;;
16139;SDS011;8175;49.326;12.690;2023-06-14T14:30:48;3.20;;;2.85;;
16139;SDS011;8175;49.326;12.690;2023-06-14T14:33:14;3.88;;;2.75;;
16139;SDS011;8175;49.326;12.690;2023-06-14T14:35:43;3.35;;;2.90;;
16139;SDS011;8175;49.326;12.690;2023-06-14T14:38:12;3.00;;;2.80;;
16139;SDS011;8175;49.326;12.690;2023-06-14T14:40:39;2.95;;;2.75;;
16139;SDS011;8175;49.326;12.690;2023-06-14T14:43:05;2.95;;;2.75;;
16139;SDS011;8175;49.326;12.690;2023-06-14T14:45:31;3.00;;;2.75;;
16139;SDS011;8175;49.326;12.690;2023-06-14T14:47:57;3.05;;;2.75;;
16139;SDS011;8175;49.326;12.690;2023-06-14T14:50:22;4.13;;;2.92;;
16139;SDS011;8175;49.326;12.690;2023-06-14T14:52:49;3.83;;;2.78;;
16139;SDS011;8175;49.326;12.690;2023-06-14T14:55:15;3.45;;;3.15;;
16139;SDS011;8175;49.326;12.690;2023-06-14T14:57:41;3.35;;;3.05;;
16139;SDS011;8175;49.326;12.690;2023-06-14T15:00:07;3.03;;;2.60;;
16139;SDS011;8175;49.326;12.690;2023-06-14T15:02:34;3.20;;;2.90;;
16139;SDS011;8175;49.326;12.690;2023-06-14T15:04:59;4.13;;;2.75;;
16139;SDS011;8175;49.326;12.690;2023-06-14T15:07:29;4.22;;;2.83;;
16139;SDS011;8175;49.326;12.690;2023-06-14T15:09:56;3.10;;;2.80;;
16139;SDS011;8175;49.326;12.690;2023-06-14T15:12:22;2.45;;;2.25;;
16139;SDS011;8175;49.326;12.690;2023-06-14T15:14:51;3.53;;;2.50;;
16139;SDS011;8175;49.326;12.690;2023-06-14T15:17:18;2.78;;;2.58;;